createdAt,value
2019-02-06T00:02:18.185Z,16.47
2019-02-06T00:04:51.606Z,18.60
2019-02-06T00:07:23.323Z,17.87
2019-02-06T00:09:56.682Z,17.30
2019-02-06T00:12:28.799Z,17.70
2019-02-06T00:15:02.298Z,18.20
2019-02-06T00:17:34.309Z,19.53
2019-02-06T00:20:06.578Z,20.73
2019-02-06T00:22:38.672Z,19.83
2019-02-06T00:25:10.777Z,18.17
2019-02-06T00:27:45.402Z,19.33
2019-02-06T00:30:17.311Z,18.40
2019-02-06T00:32:49.870Z,21.87
2019-02-06T00:35:25.868Z,17.03
2019-02-06T00:37:56.184Z,25.80
2019-02-06T00:40:28.048Z,19.57
2019-02-06T00:42:59.912Z,20.67
2019-02-06T00:45:31.807Z,20.90
2019-02-06T00:48:05.666Z,22.47
2019-02-06T00:50:39.318Z,23.83
2019-02-06T00:53:11.108Z,22.13
2019-02-06T00:55:43.188Z,26.07
2019-02-06T00:58:15.108Z,27.23
2019-02-06T01:00:46.877Z,20.83
2019-02-06T01:03:18.674Z,29.43
2019-02-06T01:05:50.282Z,22.23
2019-02-06T01:08:23.100Z,22.97
2019-02-06T01:10:54.737Z,25.47
2019-02-06T01:13:28.123Z,29.20
2019-02-06T01:16:00.491Z,25.07
2019-02-06T01:18:32.246Z,28.40
2019-02-06T01:21:03.839Z,27.23
2019-02-06T01:23:35.721Z,27.00
2019-02-06T01:26:07.568Z,24.07
2019-02-06T01:28:39.566Z,25.17
2019-02-06T01:31:15.860Z,22.53
2019-02-06T01:33:48.458Z,24.70
2019-02-06T01:36:19.966Z,26.00
2019-02-06T01:38:51.640Z,21.30
2019-02-06T01:41:23.700Z,19.83
2019-02-06T01:43:55.666Z,25.03
2019-02-06T01:46:27.465Z,20.90
2019-02-06T01:48:59.995Z,18.63
2019-02-06T01:51:31.696Z,23.13
2019-02-06T01:54:03.371Z,16.93
2019-02-06T01:56:34.757Z,17.87
2019-02-06T01:59:07.912Z,19.47
2019-02-06T02:01:40.026Z,17.63
2019-02-06T02:04:13.737Z,21.40
2019-02-06T02:06:46.014Z,18.57
2019-02-06T02:09:19.740Z,17.87
2019-02-06T02:11:51.618Z,23.30
2019-02-06T02:14:23.120Z,19.53
2019-02-06T02:16:54.878Z,23.10
2019-02-06T02:19:26.157Z,23.53
2019-02-06T02:21:58.065Z,19.50
2019-02-06T02:24:29.637Z,20.23
2019-02-06T02:27:01.114Z,22.17
2019-02-06T02:29:33.215Z,20.40
2019-02-06T02:32:06.040Z,17.70
2019-02-06T02:34:37.415Z,16.70
2019-02-06T02:37:09.293Z,19.83
2019-02-06T02:39:41.853Z,24.90
2019-02-06T02:42:13.492Z,25.80
2019-02-06T02:44:45.527Z,23.23
2019-02-06T02:47:16.901Z,23.17
2019-02-06T02:49:48.554Z,20.30
2019-02-06T02:52:27.388Z,16.37
2019-02-06T02:54:59.286Z,15.83
2019-02-06T02:57:31.387Z,15.60
2019-02-06T03:00:06.369Z,16.40
2019-02-06T03:02:55.998Z,11.53
2019-02-06T03:05:30.436Z,13.77
2019-02-06T03:08:01.962Z,16.00
2019-02-06T03:10:33.897Z,12.47
2019-02-06T03:13:06.238Z,13.27
2019-02-06T03:15:38.086Z,11.70
2019-02-06T03:18:09.927Z,10.10
2019-02-06T03:20:41.743Z,10.23
2019-02-06T03:23:14.233Z,9.80
2019-02-06T03:25:46.148Z,12.67
2019-02-06T03:28:19.168Z,12.03
2019-02-06T03:30:50.979Z,13.77
2019-02-06T03:33:27.954Z,13.13
2019-02-06T03:35:59.462Z,13.23
2019-02-06T03:38:32.180Z,13.23
2019-02-06T03:41:05.877Z,12.43
2019-02-06T03:43:37.301Z,15.73
2019-02-06T03:46:09.184Z,12.90
2019-02-06T03:48:40.731Z,10.63
2019-02-06T03:51:12.325Z,16.87
2019-02-06T03:53:44.971Z,17.10
2019-02-06T03:56:16.309Z,12.80
2019-02-06T03:58:48.133Z,20.50
2019-02-06T04:01:20.512Z,23.40
2019-02-06T04:03:52.109Z,15.97
2019-02-06T04:06:23.922Z,22.23
2019-02-06T04:08:55.290Z,17.17
2019-02-06T04:11:27.279Z,19.40
2019-02-06T04:13:58.935Z,15.77
2019-02-06T04:16:30.777Z,15.63
2019-02-06T04:19:02.501Z,12.83
2019-02-06T04:21:36.222Z,15.00
2019-02-06T04:24:07.604Z,13.47
2019-02-06T04:26:39.167Z,16.47
2019-02-06T04:29:10.875Z,18.03
2019-02-06T04:31:42.484Z,12.67
2019-02-06T04:34:14.289Z,15.80
2019-02-06T04:36:45.943Z,15.30
2019-02-06T04:39:17.451Z,14.73
2019-02-06T04:41:51.302Z,12.20
2019-02-06T04:44:22.973Z,12.47
2019-02-06T04:46:54.522Z,14.57
2019-02-06T04:49:25.995Z,14.57
2019-02-06T04:51:58.181Z,14.83
2019-02-06T04:54:30.791Z,16.70
2019-02-06T04:57:03.417Z,18.37
2019-02-06T04:59:35.013Z,16.00
2019-02-06T05:02:06.796Z,13.40
2019-02-06T05:04:38.247Z,17.47
2019-02-06T05:07:18.681Z,17.37
2019-02-06T05:09:43.287Z,16.43
2019-02-06T05:12:15.203Z,13.70
2019-02-06T05:14:46.495Z,16.13
2019-02-06T05:17:18.756Z,13.07
2019-02-06T05:19:50.951Z,14.37
2019-02-06T05:22:22.892Z,17.03
2019-02-06T05:24:54.284Z,15.27
2019-02-06T05:27:26.044Z,22.13
2019-02-06T05:29:59.230Z,11.40
2019-02-06T05:32:31.356Z,15.90
2019-02-06T05:35:04.920Z,12.57
2019-02-06T05:37:36.319Z,20.03
2019-02-06T05:40:08.486Z,12.23
2019-02-06T05:42:42.385Z,19.53
2019-02-06T05:45:14.041Z,15.47
2019-02-06T05:47:46.317Z,17.23
2019-02-06T05:50:17.934Z,14.30
2019-02-06T05:52:55.033Z,18.10
2019-02-06T05:55:27.798Z,26.50
2019-02-06T05:57:59.466Z,17.83
2019-02-06T06:00:38.303Z,14.87
2019-02-06T06:03:10.379Z,15.13
2019-02-06T06:05:42.198Z,19.33
2019-02-06T06:08:13.998Z,12.47
2019-02-06T06:10:45.838Z,13.03
2019-02-06T06:13:18.604Z,14.47
2019-02-06T06:15:50.466Z,13.70
2019-02-06T06:18:22.225Z,16.20
2019-02-06T06:20:54.381Z,20.53
2019-02-06T06:23:26.204Z,20.70
2019-02-06T06:25:57.751Z,23.27
2019-02-06T06:28:30.468Z,20.27
2019-02-06T06:31:02.227Z,20.10
2019-02-06T06:33:34.294Z,21.77
2019-02-06T06:36:06.050Z,20.40
2019-02-06T06:38:37.493Z,16.07
2019-02-06T06:41:09.378Z,24.43
2019-02-06T06:43:41.102Z,14.93
2019-02-06T06:46:13.416Z,19.53
2019-02-06T06:48:45.344Z,21.57
2019-02-06T06:51:18.960Z,22.67
2019-02-06T06:53:50.695Z,24.10
2019-02-06T06:56:22.315Z,18.67
2019-02-06T06:58:54.043Z,25.03
2019-02-06T07:01:25.869Z,30.25
2019-02-06T07:03:57.584Z,21.53
2019-02-06T07:06:29.291Z,19.40
2019-02-06T07:09:01.515Z,26.70
2019-02-06T07:11:34.481Z,31.00
2019-02-06T07:14:06.029Z,23.07
2019-02-06T07:16:37.384Z,25.50
2019-02-06T07:19:08.868Z,21.93
2019-02-06T07:21:40.856Z,26.37
2019-02-06T07:24:12.656Z,26.53
2019-02-06T07:26:44.857Z,23.73
2019-02-06T07:29:16.296Z,26.27
2019-02-06T07:31:48.348Z,18.23
2019-02-06T07:34:19.861Z,29.43
2019-02-06T07:36:51.670Z,24.90
2019-02-06T07:39:23.390Z,23.73
2019-02-06T07:41:55.350Z,21.90
2019-02-06T07:44:27.349Z,22.70
2019-02-06T07:46:59.125Z,19.03
2019-02-06T07:49:31.816Z,17.77
2019-02-06T07:52:04.149Z,20.40
2019-02-06T07:54:39.096Z,21.07
2019-02-06T07:57:15.329Z,19.57
2019-02-06T07:59:46.867Z,19.37
2019-02-06T08:02:22.208Z,19.27
2019-02-06T08:04:53.948Z,20.37
2019-02-06T08:07:25.810Z,20.37
2019-02-06T08:09:57.567Z,24.13
2019-02-06T08:12:29.839Z,22.40
2019-02-06T08:15:01.427Z,29.70
2019-02-06T08:17:37.614Z,27.93
2019-02-06T08:20:11.235Z,31.27
2019-02-06T08:22:43.696Z,29.47
2019-02-06T08:25:17.319Z,27.50
2019-02-06T08:27:48.975Z,22.60
2019-02-06T08:30:27.580Z,29.50
2019-02-06T08:32:59.374Z,23.10
2019-02-06T08:35:31.154Z,20.63
2019-02-06T08:38:02.840Z,24.20
2019-02-06T08:40:34.844Z,25.07
2019-02-06T08:43:08.337Z,18.87
2019-02-06T08:45:40.117Z,22.53
2019-02-06T08:48:13.612Z,24.80
2019-02-06T08:50:45.503Z,14.10
2019-02-06T08:53:17.416Z,18.70
2019-02-06T08:55:52.171Z,14.30
2019-02-06T08:58:23.785Z,15.97
2019-02-06T09:00:55.933Z,16.57
2019-02-06T09:03:27.584Z,13.63
2019-02-06T09:05:59.351Z,14.23
2019-02-06T09:08:31.157Z,18.43
2019-02-06T09:11:02.582Z,16.33
2019-02-06T09:13:40.125Z,16.43
2019-02-06T09:16:11.936Z,16.07
2019-02-06T09:18:45.367Z,47.73
2019-02-06T09:21:17.126Z,28.80
2019-02-06T09:23:48.763Z,16.40
2019-02-06T09:26:20.688Z,20.43
2019-02-06T09:28:52.288Z,28.83
2019-02-06T09:31:23.897Z,18.87
2019-02-06T09:33:55.434Z,22.67
2019-02-06T09:36:28.546Z,24.77
2019-02-06T09:39:11.144Z,28.93
2019-02-06T09:41:42.349Z,19.00
2019-02-06T09:44:14.257Z,12.97
2019-02-06T09:46:46.279Z,9.27
2019-02-06T09:49:20.141Z,19.40
2019-02-06T09:51:52.168Z,12.63
2019-02-06T09:54:23.866Z,8.23
2019-02-06T09:56:56.541Z,12.10
2019-02-06T09:59:28.082Z,13.93
2019-02-06T10:02:00.892Z,8.67
2019-02-06T10:04:32.757Z,8.17
2019-02-06T10:07:04.721Z,16.63
2019-02-06T10:09:36.284Z,13.20
2019-02-06T10:12:07.969Z,11.40
2019-02-06T10:14:39.906Z,13.87
2019-02-06T10:17:11.619Z,9.97
2019-02-06T10:19:43.544Z,14.30
2019-02-06T10:22:15.197Z,12.87
2019-02-06T10:24:49.570Z,11.47
2019-02-06T10:27:23.911Z,9.83
2019-02-06T10:29:54.689Z,12.47
2019-02-06T10:32:26.653Z,9.53
2019-02-06T10:34:58.218Z,11.70
2019-02-06T10:37:30.136Z,16.80
2019-02-06T10:40:01.574Z,14.20
2019-02-06T10:42:35.058Z,14.10
2019-02-06T10:45:07.028Z,10.53
2019-02-06T10:47:38.388Z,14.90
2019-02-06T10:50:11.844Z,13.00
2019-02-06T10:52:43.657Z,12.87
2019-02-06T10:55:18.738Z,10.43
2019-02-06T10:57:51.908Z,14.77
2019-02-06T11:00:35.132Z,14.03
2019-02-06T11:03:06.888Z,12.17
2019-02-06T11:05:38.574Z,10.07
2019-02-06T11:08:10.408Z,15.17
2019-02-06T11:10:41.980Z,14.27
2019-02-06T11:13:14.129Z,13.50
2019-02-06T11:15:46.420Z,14.97
2019-02-06T11:18:18.108Z,12.97
2019-02-06T11:20:49.614Z,16.57
2019-02-06T11:23:21.156Z,14.00
2019-02-06T11:25:52.514Z,19.10
2019-02-06T11:28:24.126Z,13.23
2019-02-06T11:30:57.225Z,13.30
2019-02-06T11:33:29.357Z,14.90
2019-02-06T11:36:02.396Z,13.27
2019-02-06T11:38:36.694Z,14.60
2019-02-06T11:41:08.379Z,16.67
2019-02-06T11:43:45.419Z,12.63
2019-02-06T11:46:17.121Z,13.87
2019-02-06T11:48:48.611Z,13.20
2019-02-06T11:51:20.781Z,20.73
2019-02-06T11:53:52.263Z,14.30
2019-02-06T11:56:23.872Z,15.73
2019-02-06T11:58:55.476Z,19.53
2019-02-06T12:01:33.648Z,15.33
2019-02-06T12:04:05.607Z,13.33
2019-02-06T12:06:37.387Z,13.10
2019-02-06T12:09:13.508Z,13.37
2019-02-06T12:11:46.142Z,14.17
2019-02-06T12:14:19.010Z,14.90
2019-02-06T12:16:50.458Z,13.93
2019-02-06T12:19:22.156Z,17.60
2019-02-06T12:21:53.981Z,19.47
2019-02-06T12:24:25.410Z,11.73
2019-02-06T12:26:57.389Z,15.57
2019-02-06T12:29:31.219Z,14.83
2019-02-06T12:32:03.171Z,12.10
2019-02-06T12:34:36.697Z,12.47
2019-02-06T12:37:08.351Z,11.20
2019-02-06T12:39:40.159Z,10.83
2019-02-06T12:42:17.707Z,10.97
2019-02-06T12:44:49.560Z,13.17
2019-02-06T12:47:22.683Z,11.33
2019-02-06T12:50:01.673Z,11.50
2019-02-06T12:52:29.980Z,12.27
2019-02-06T12:55:01.571Z,12.83
2019-02-06T12:57:37.432Z,11.63
2019-02-06T13:00:14.378Z,13.70
2019-02-06T13:02:46.491Z,13.17
2019-02-06T13:05:19.151Z,15.37
2019-02-06T13:07:50.871Z,9.37
2019-02-06T13:10:33.424Z,8.90
2019-02-06T13:12:57.699Z,10.93
2019-02-06T13:15:29.407Z,12.23
2019-02-06T13:18:01.269Z,11.30
2019-02-06T13:20:33.604Z,12.70
2019-02-06T13:23:08.093Z,14.03
2019-02-06T13:25:39.967Z,17.20
2019-02-06T13:28:13.059Z,16.13
2019-02-06T13:30:45.073Z,16.97
2019-02-06T13:33:18.273Z,13.20
2019-02-06T13:35:50.148Z,14.53
2019-02-06T13:38:23.211Z,11.07
2019-02-06T13:40:55.506Z,12.13
2019-02-06T13:43:27.544Z,12.10
2019-02-06T13:45:59.097Z,16.23
2019-02-06T13:48:33.776Z,21.53
2019-02-06T13:51:16.365Z,26.57
2019-02-06T13:53:38.474Z,19.33
2019-02-06T13:56:11.498Z,17.60
2019-02-06T13:58:45.936Z,26.03
2019-02-06T14:01:25.421Z,29.07
2019-02-06T14:03:50.929Z,24.47
2019-02-06T14:06:23.643Z,17.00
2019-02-06T14:08:55.415Z,23.07
2019-02-06T14:11:27.063Z,23.30
2019-02-06T14:13:58.711Z,29.83
2019-02-06T14:16:30.898Z,35.73
2019-02-06T14:19:04.752Z,27.50
2019-02-06T14:21:36.390Z,29.30
2019-02-06T14:24:45.691Z,26.93
2019-02-06T14:27:46.505Z,28.87
2019-02-06T14:30:28.152Z,21.67
2019-02-06T14:33:10.115Z,20.07
2019-02-06T14:36:22.976Z,24.40
2019-02-06T14:39:07.253Z,19.87
2019-02-06T14:42:14.569Z,23.07
2019-02-06T14:45:26.732Z,26.00
2019-02-06T14:48:20.471Z,19.17
2019-02-06T14:51:24.445Z,24.37
2019-02-06T14:54:10.430Z,24.83
2019-02-06T14:57:29.841Z,22.80
2019-02-06T15:00:59.255Z,22.50
2019-02-06T15:03:58.711Z,22.13
2019-02-06T15:06:59.752Z,28.57
2019-02-06T15:10:08.676Z,24.90
2019-02-06T15:13:00.641Z,24.10
2019-02-06T15:16:13.149Z,24.20
2019-02-06T15:19:14.379Z,28.70
2019-02-06T15:22:00.319Z,23.57
2019-02-06T15:24:58.301Z,23.57
2019-02-06T15:28:23.439Z,22.20
2019-02-06T15:31:32.326Z,19.83
2019-02-06T15:34:55.665Z,22.90
2019-02-06T15:38:18.492Z,31.33
2019-02-06T15:41:46.488Z,29.17
2019-02-06T15:44:50.221Z,30.40
2019-02-06T15:47:34.684Z,28.60
2019-02-06T15:50:26.886Z,24.20
2019-02-06T15:53:53.977Z,23.23
2019-02-06T15:56:57.171Z,28.10
2019-02-06T15:59:56.694Z,26.03
2019-02-06T16:02:52.556Z,29.07
2019-02-06T16:06:14.553Z,29.10
2019-02-06T16:09:15.228Z,30.77
2019-02-06T16:12:36.548Z,39.40
2019-02-06T16:15:40.822Z,29.30
2019-02-06T16:18:38.412Z,27.10
2019-02-06T16:21:53.028Z,41.17
2019-02-06T16:24:45.169Z,35.87
2019-02-06T16:27:53.725Z,35.67
2019-02-06T16:30:57.832Z,36.07
2019-02-06T16:34:19.667Z,30.80
2019-02-06T16:37:30.078Z,35.13
2019-02-06T16:40:37.709Z,31.43
2019-02-06T16:43:41.323Z,29.10
2019-02-06T16:47:07.485Z,36.57
2019-02-06T16:50:28.563Z,34.77
2019-02-06T16:53:37.584Z,35.13
2019-02-06T16:56:47.217Z,33.83
2019-02-06T17:00:11.708Z,39.97
2019-02-06T17:03:08.020Z,54.50
2019-02-06T17:06:04.046Z,46.10
2019-02-06T17:09:12.249Z,48.47
2019-02-06T17:12:20.800Z,46.10
2019-02-06T17:15:17.926Z,57.27
2019-02-06T17:18:48.727Z,52.90
2019-02-06T17:22:00.168Z,50.30
2019-02-06T17:25:11.330Z,49.13
2019-02-06T17:28:27.245Z,54.97
2019-02-06T17:31:42.350Z,44.67
2019-02-06T17:34:35.562Z,46.93
2019-02-06T17:37:53.274Z,50.30
2019-02-06T17:41:01.228Z,47.13
2019-02-06T17:44:12.556Z,48.53
2019-02-06T17:46:48.155Z,50.03
2019-02-06T17:50:18.908Z,46.87
2019-02-06T17:53:30.514Z,48.40
2019-02-06T17:56:02.096Z,50.10
2019-02-06T17:58:38.652Z,50.93
2019-02-06T18:01:26.679Z,48.90
2019-02-06T18:04:02.333Z,49.70
2019-02-06T18:06:34.154Z,60.43
2019-02-06T18:09:10.361Z,50.27
2019-02-06T18:11:42.623Z,45.23
2019-02-06T18:14:14.635Z,45.17
2019-02-06T18:16:46.468Z,40.57
2019-02-06T18:19:17.895Z,41.87
2019-02-06T18:21:49.729Z,43.20
2019-02-06T18:24:21.583Z,46.33
2019-02-06T18:26:53.941Z,39.07
2019-02-06T18:29:28.302Z,41.80
2019-02-06T18:32:00.148Z,36.47
2019-02-06T18:34:31.718Z,38.23
2019-02-06T18:37:04.616Z,38.17
2019-02-06T18:39:36.335Z,35.87
2019-02-06T18:42:08.413Z,38.73
2019-02-06T18:44:42.160Z,39.83
2019-02-06T18:47:13.875Z,33.03
2019-02-06T18:49:45.798Z,33.40
2019-02-06T18:52:20.515Z,37.83
2019-02-06T18:54:52.709Z,35.80
2019-02-06T18:57:24.707Z,28.10
2019-02-06T18:59:56.379Z,33.60
2019-02-06T19:02:28.299Z,34.90
2019-02-06T19:05:01.523Z,33.80
2019-02-06T19:07:34.853Z,30.33
2019-02-06T19:10:08.962Z,29.47
2019-02-06T19:12:47.813Z,33.27
2019-02-06T19:15:14.575Z,29.93
2019-02-06T19:17:45.968Z,35.03
2019-02-06T19:20:18.246Z,33.30
2019-02-06T19:22:50.158Z,31.17
2019-02-06T19:25:23.897Z,28.57
2019-02-06T19:27:56.310Z,30.80
2019-02-06T19:30:30.967Z,30.03
2019-02-06T19:33:04.569Z,29.93
2019-02-06T19:35:36.293Z,32.50
2019-02-06T19:38:07.864Z,32.87
2019-02-06T19:40:39.524Z,33.70
2019-02-06T19:43:11.313Z,36.90
2019-02-06T19:45:44.026Z,33.33
2019-02-06T19:48:21.835Z,36.60
2019-02-06T19:50:49.804Z,38.63
2019-02-06T19:53:22.380Z,36.70
2019-02-06T19:55:53.731Z,34.63
2019-02-06T19:58:25.417Z,36.90
2019-02-06T20:00:57.831Z,33.53
2019-02-06T20:03:29.977Z,36.80
2019-02-06T20:06:05.464Z,39.13
2019-02-06T20:08:35.981Z,38.83
2019-02-06T20:11:07.978Z,36.23
2019-02-06T20:13:40.172Z,38.63
2019-02-06T20:16:12.099Z,39.30
2019-02-06T20:18:44.401Z,36.33
2019-02-06T20:21:16.203Z,35.37
2019-02-06T20:23:51.144Z,36.57
2019-02-06T20:26:23.385Z,37.87
2019-02-06T20:28:55.804Z,36.20
2019-02-06T20:31:29.390Z,41.00
2019-02-06T20:34:01.610Z,39.63
2019-02-06T20:36:36.679Z,38.53
2019-02-06T20:39:10.760Z,36.63
2019-02-06T20:41:42.760Z,41.50
2019-02-06T20:44:16.503Z,41.63
2019-02-06T20:46:48.390Z,42.83
2019-02-06T20:49:20.146Z,39.37
2019-02-06T20:51:52.646Z,36.77
2019-02-06T20:54:24.869Z,39.87
2019-02-06T20:56:56.706Z,45.03
2019-02-06T20:59:31.610Z,41.83
2019-02-06T21:02:03.573Z,43.60
2019-02-06T21:04:37.710Z,49.20
2019-02-06T21:07:09.879Z,38.07
2019-02-06T21:09:42.363Z,40.23
2019-02-06T21:12:14.293Z,43.50
2019-02-06T21:14:46.664Z,40.43
2019-02-06T21:17:19.287Z,44.23
2019-02-06T21:19:51.178Z,40.93
2019-02-06T21:22:25.799Z,43.13
2019-02-06T21:24:59.424Z,44.97
2019-02-06T21:27:31.882Z,42.13
2019-02-06T21:30:03.917Z,46.97
2019-02-06T21:32:37.708Z,42.07
2019-02-06T21:35:09.481Z,45.80
2019-02-06T21:37:40.840Z,44.50
2019-02-06T21:40:16.124Z,45.70
2019-02-06T21:42:48.592Z,42.77
2019-02-06T21:45:20.580Z,49.07
2019-02-06T21:47:52.300Z,45.90
2019-02-06T21:50:24.166Z,48.63
2019-02-06T21:53:01.792Z,48.80
2019-02-06T21:55:33.699Z,48.27
2019-02-06T21:58:05.996Z,47.50
2019-02-06T22:00:40.028Z,48.87
2019-02-06T22:03:11.894Z,44.87
2019-02-06T22:05:43.913Z,45.83
2019-02-06T22:08:15.609Z,49.57
2019-02-06T22:10:47.318Z,46.80
2019-02-06T22:13:19.551Z,53.03
2019-02-06T22:15:52.380Z,48.73
2019-02-06T22:18:24.067Z,47.10
2019-02-06T22:20:55.742Z,50.73
2019-02-06T22:23:27.685Z,50.70
2019-02-06T22:25:59.484Z,46.90
2019-02-06T22:28:33.648Z,51.93
2019-02-06T22:31:05.397Z,46.33
2019-02-06T22:33:36.954Z,52.17
2019-02-06T22:36:08.711Z,47.70
2019-02-06T22:38:40.405Z,49.13
2019-02-06T22:41:12.719Z,46.07
2019-02-06T22:43:47.783Z,51.70
2019-02-06T22:46:19.989Z,50.40
2019-02-06T22:48:51.897Z,49.07
2019-02-06T22:51:23.409Z,53.00
2019-02-06T22:53:55.135Z,47.67
2019-02-06T22:56:26.735Z,52.53
2019-02-06T22:58:58.440Z,52.57
2019-02-06T23:01:40.487Z,52.20
2019-02-06T23:04:14.266Z,51.53
2019-02-06T23:06:47.644Z,53.53
2019-02-06T23:09:19.496Z,54.73
2019-02-06T23:11:51.140Z,57.53
2019-02-06T23:14:22.692Z,57.47
2019-02-06T23:16:55.475Z,53.27
2019-02-06T23:19:27.641Z,55.33
2019-02-06T23:22:00.443Z,51.73
2019-02-06T23:24:32.211Z,56.77
2019-02-06T23:27:04.136Z,53.97
2019-02-06T23:29:37.682Z,58.73
2019-02-06T23:32:09.690Z,55.60
2019-02-06T23:34:41.069Z,55.17
2019-02-06T23:37:12.570Z,56.23
2019-02-06T23:39:45.408Z,56.37
2019-02-06T23:42:16.901Z,54.93
2019-02-06T23:44:52.050Z,59.13
2019-02-06T23:47:23.891Z,57.07
2019-02-06T23:49:55.807Z,59.73
2019-02-06T23:52:27.994Z,64.00
2019-02-06T23:54:59.780Z,59.43
2019-02-06T23:57:31.741Z,66.07
